createdAt,value
2023-04-09T00:02:36.019Z,21.17
2023-04-09T00:07:37.773Z,22.58
2023-04-09T00:12:39.448Z,22.42
2023-04-09T00:17:41.323Z,21.08
2023-04-09T00:22:43.229Z,20.90
2023-04-09T00:27:44.878Z,21.58
2023-04-09T00:32:46.726Z,21.75
2023-04-09T00:37:48.534Z,22.40
2023-04-09T00:42:51.761Z,22.08
2023-04-09T00:47:53.690Z,22.10
2023-04-09T00:52:56.455Z,23.08
2023-04-09T00:57:58.388Z,23.08
2023-04-09T01:03:01.108Z,24.10
2023-04-09T01:08:17.956Z,23.60
2023-04-09T01:13:31.697Z,23.70
2023-04-09T01:18:50.868Z,22.17
2023-04-09T01:24:19.280Z,22.95
2023-04-09T01:29:24.045Z,22.17
2023-04-09T01:34:27.475Z,24.80
2023-04-09T01:39:30.054Z,24.25
2023-04-09T01:44:32.754Z,22.55
2023-04-09T01:49:36.276Z,21.58
2023-04-09T01:54:37.960Z,22.75
2023-04-09T01:59:39.608Z,23.65
2023-04-09T02:04:46.577Z,24.38
2023-04-09T02:09:48.882Z,23.67
2023-04-09T02:14:52.402Z,23.67
2023-04-09T02:19:54.068Z,25.02
2023-04-09T02:24:55.956Z,25.88
2023-04-09T02:29:57.629Z,23.75
2023-04-09T02:34:59.345Z,23.77
2023-04-09T02:40:01.044Z,23.75
2023-04-09T02:45:02.670Z,24.20
2023-04-09T02:50:06.756Z,23.52
2023-04-09T02:55:10.298Z,24.38
2023-04-09T03:00:12.809Z,22.52
2023-04-09T03:05:14.713Z,23.88
2023-04-09T03:10:16.375Z,23.38
2023-04-09T03:15:18.322Z,24.17
2023-04-09T03:20:20.137Z,22.55
2023-04-09T03:25:21.968Z,23.30
2023-04-09T03:30:27.485Z,23.00
2023-04-09T03:35:30.676Z,22.73
2023-04-09T03:40:36.505Z,22.48
2023-04-09T03:45:38.303Z,21.27
2023-04-09T03:50:53.780Z,21.20
2023-04-09T03:56:04.120Z,22.08
2023-04-09T04:01:06.984Z,22.25
2023-04-09T04:06:16.559Z,22.63
2023-04-09T04:11:26.644Z,22.60
2023-04-09T04:16:30.326Z,23.65
2023-04-09T04:21:32.391Z,23.65
2023-04-09T04:26:36.824Z,22.63
2023-04-09T04:31:38.682Z,23.83
2023-04-09T04:36:40.440Z,22.33
2023-04-09T04:41:42.989Z,23.33
2023-04-09T04:46:49.762Z,24.00
2023-04-09T04:51:51.481Z,25.80
2023-04-09T04:56:53.613Z,27.02
2023-04-09T05:02:11.836Z,23.95
2023-04-09T05:07:24.404Z,24.98
2023-04-09T05:12:32.016Z,25.35
2023-04-09T05:17:34.493Z,25.88
2023-04-09T05:22:36.451Z,24.75
2023-04-09T05:27:39.182Z,24.67
2023-04-09T05:32:41.516Z,26.00
2023-04-09T05:37:43.556Z,25.25
2023-04-09T05:42:46.668Z,24.73
2023-04-09T05:52:58.645Z,23.30
2023-04-09T05:58:07.497Z,24.10
2023-04-09T06:03:09.789Z,24.63
2023-04-09T06:08:12.170Z,25.73
2023-04-09T06:13:14.015Z,24.60
2023-04-09T06:18:16.536Z,25.20
2023-04-09T06:23:18.428Z,25.67
2023-04-09T06:28:20.369Z,24.52
2023-04-09T06:33:22.438Z,24.95
2023-04-09T06:38:24.232Z,23.77
2023-04-09T06:43:26.097Z,24.00
2023-04-09T06:48:28.324Z,23.42
2023-04-09T06:53:29.975Z,21.80
2023-04-09T06:58:31.666Z,24.55
2023-04-09T07:03:33.560Z,25.13
2023-04-09T07:08:35.441Z,26.50
2023-04-09T07:13:37.316Z,26.80
2023-04-09T07:18:40.299Z,24.35
2023-04-09T07:23:42.556Z,25.73
2023-04-09T07:28:44.329Z,24.52
2023-04-09T07:33:46.214Z,25.65
2023-04-09T07:38:50.465Z,25.63
2023-04-09T07:43:52.277Z,25.35
2023-04-09T07:48:54.491Z,25.35
2023-04-09T07:53:56.424Z,26.25
2023-04-09T07:58:58.417Z,27.50
2023-04-09T08:04:00.657Z,26.75
2023-04-09T08:09:03.284Z,26.33
2023-04-09T08:14:06.324Z,28.10
2023-04-09T08:19:09.480Z,27.92
2023-04-09T08:24:12.055Z,26.63
2023-04-09T08:29:15.527Z,26.08
2023-04-09T08:34:21.039Z,26.40
2023-04-09T08:39:22.781Z,28.55
2023-04-09T08:44:27.889Z,27.83
2023-04-09T08:49:29.745Z,28.02
2023-04-09T08:54:32.281Z,29.08
2023-04-09T08:59:38.000Z,28.92
2023-04-09T09:04:50.911Z,30.05
2023-04-09T09:09:53.568Z,29.77
2023-04-09T09:14:55.405Z,31.35
2023-04-09T09:19:57.757Z,29.65
2023-04-09T09:24:59.510Z,31.42
2023-04-09T09:30:01.543Z,31.08
2023-04-09T09:35:08.469Z,30.73
2023-04-09T09:40:10.795Z,31.45
2023-04-09T09:45:19.606Z,34.28
2023-04-09T09:50:28.546Z,34.75
2023-04-09T09:55:43.462Z,32.92
2023-04-09T10:00:47.272Z,32.92
2023-04-09T10:05:50.040Z,31.20
2023-04-09T10:10:52.806Z,32.17
2023-04-09T10:16:56.962Z,33.22
2023-04-09T10:22:05.805Z,33.10
2023-04-09T10:27:14.280Z,32.85
2023-04-09T10:42:35.431Z,32.55
2023-04-09T10:47:39.653Z,32.40
2023-04-09T10:52:42.398Z,32.85
2023-04-09T10:57:44.210Z,33.70
2023-04-09T11:03:06.654Z,34.15
2023-04-09T11:08:10.707Z,33.42
2023-04-09T11:13:13.956Z,33.03
2023-04-09T11:18:20.883Z,33.63
2023-04-09T11:23:23.776Z,35.90
2023-04-09T11:28:26.438Z,33.65
2023-04-09T11:33:34.649Z,33.25
2023-04-09T11:38:37.210Z,32.78
2023-04-09T11:43:38.940Z,32.28
2023-04-09T11:48:40.699Z,32.25
2023-04-09T11:53:42.327Z,31.67
2023-04-09T11:58:48.267Z,30.27
2023-04-09T12:03:56.373Z,32.60
2023-04-09T12:08:59.410Z,31.63
2023-04-09T12:14:05.340Z,32.33
2023-04-09T12:19:08.714Z,31.13
2023-04-09T12:24:10.456Z,30.35
2023-04-09T12:29:14.036Z,28.42
2023-04-09T12:34:16.395Z,31.25
2023-04-09T12:39:18.252Z,29.15
2023-04-09T12:44:20.013Z,30.35
2023-04-09T12:49:21.692Z,29.35
2023-04-09T12:54:23.455Z,29.13
2023-04-09T12:59:25.263Z,28.27
2023-04-09T13:04:27.059Z,28.90
2023-04-09T13:09:28.815Z,29.23
2023-04-09T13:14:30.797Z,30.58
2023-04-09T13:19:32.728Z,29.45
2023-04-09T13:24:38.244Z,29.10
2023-04-09T13:29:40.101Z,27.50
2023-04-09T13:34:41.762Z,28.20
2023-04-09T13:39:44.870Z,26.83
2023-04-09T13:44:46.799Z,27.42
2023-04-09T13:49:48.555Z,22.92
2023-04-09T13:54:50.326Z,23.00
2023-04-09T13:59:51.994Z,26.08
2023-04-09T14:04:53.743Z,27.02
2023-04-09T14:09:55.440Z,30.75
2023-04-09T14:14:57.175Z,31.85
2023-04-09T14:19:59.163Z,33.45
2023-04-09T14:25:00.781Z,32.42
2023-04-09T14:30:03.594Z,32.30
2023-04-09T14:35:06.364Z,31.60
2023-04-09T14:40:08.737Z,30.35
2023-04-09T14:45:11.067Z,28.38
2023-04-09T14:50:12.979Z,28.08
2023-04-09T14:55:15.643Z,26.55
2023-04-09T15:00:17.328Z,21.38
2023-04-09T15:05:19.215Z,20.33
2023-04-09T15:10:21.005Z,17.15
2023-04-09T15:15:22.890Z,17.83
2023-04-09T15:20:24.622Z,16.50
2023-04-09T15:25:26.255Z,16.38
2023-04-09T15:30:27.929Z,19.33
2023-04-09T15:35:29.711Z,17.80
2023-04-09T15:40:32.000Z,13.85
2023-04-09T15:45:33.737Z,16.95
2023-04-09T15:50:35.617Z,16.70
2023-04-09T15:55:37.340Z,16.33
2023-04-09T16:00:39.004Z,13.88
2023-04-09T16:05:40.695Z,16.35
2023-04-09T16:10:42.393Z,19.98
2023-04-09T16:15:45.423Z,21.00
2023-04-09T16:20:47.304Z,18.45
2023-04-09T16:25:49.498Z,19.80
2023-04-09T16:30:51.138Z,18.00
2023-04-09T16:35:52.859Z,18.70
2023-04-09T16:40:54.972Z,19.75
2023-04-09T16:45:57.151Z,20.83
2023-04-09T16:50:58.892Z,20.85
2023-04-09T16:56:00.760Z,20.52
2023-04-09T17:01:02.436Z,18.63
2023-04-09T17:06:04.930Z,19.13
2023-04-09T17:11:06.946Z,19.35
2023-04-09T17:16:09.372Z,18.23
2023-04-09T17:21:12.410Z,19.52
2023-04-09T17:26:16.866Z,18.15
2023-04-09T17:31:19.213Z,19.40
2023-04-09T17:36:21.350Z,18.65
2023-04-09T17:41:24.066Z,19.27
2023-04-09T17:46:25.855Z,18.23
2023-04-09T17:51:27.758Z,16.52
2023-04-09T17:56:29.374Z,32.35
2023-04-09T18:01:31.053Z,15.85
2023-04-09T18:06:32.924Z,14.90
2023-04-09T18:11:34.644Z,21.08
2023-04-09T18:16:40.138Z,16.48
2023-04-09T18:21:42.046Z,17.27
2023-04-09T18:26:44.012Z,16.48
2023-04-09T18:31:45.778Z,15.35
2023-04-09T18:36:48.700Z,16.60
2023-04-09T18:41:50.675Z,15.95
2023-04-09T18:46:52.604Z,16.27
2023-04-09T18:51:54.785Z,18.48
2023-04-09T18:56:57.593Z,18.15
2023-04-09T19:01:59.589Z,16.65
2023-04-09T19:07:01.773Z,15.68
2023-04-09T19:12:03.768Z,16.63
2023-04-09T19:17:05.677Z,17.05
2023-04-09T19:22:07.517Z,16.00
2023-04-09T19:27:10.069Z,16.92
2023-04-09T19:32:13.365Z,16.05
2023-04-09T19:37:16.486Z,16.35
2023-04-09T19:42:18.227Z,16.42
2023-04-09T19:47:19.975Z,16.33
2023-04-09T19:52:21.787Z,16.13
2023-04-09T19:57:23.530Z,17.35
2023-04-09T20:02:25.642Z,15.48
2023-04-09T20:07:27.352Z,16.45
2023-04-09T20:12:29.694Z,15.15
2023-04-09T20:17:32.040Z,15.88
2023-04-09T20:22:34.083Z,14.43
2023-04-09T20:27:35.687Z,15.13
2023-04-09T20:32:41.213Z,15.32
2023-04-09T20:37:51.801Z,15.88
2023-04-09T20:42:53.560Z,16.65
2023-04-09T20:47:56.235Z,16.35
2023-04-09T20:53:01.159Z,15.15
2023-04-09T20:58:04.265Z,25.35
2023-04-09T21:03:06.052Z,15.95
2023-04-09T21:08:08.271Z,15.55
2023-04-09T21:13:09.885Z,17.00
2023-04-09T21:18:11.591Z,16.95
2023-04-09T21:23:13.674Z,17.00
2023-04-09T21:28:15.582Z,34.35
2023-04-09T21:33:17.204Z,18.17
2023-04-09T21:38:19.255Z,17.52
2023-04-09T21:43:20.923Z,15.50
2023-04-09T21:48:23.085Z,17.17
2023-04-09T21:53:24.852Z,16.20
2023-04-09T21:58:26.562Z,15.77
2023-04-09T22:03:28.694Z,16.00
2023-04-09T22:08:30.504Z,15.93
2023-04-09T22:13:32.125Z,19.30
2023-04-09T22:18:37.099Z,15.23
2023-04-09T22:23:38.709Z,18.08
2023-04-09T22:28:40.348Z,14.98
2023-04-09T22:33:42.032Z,19.20
2023-04-09T22:38:43.697Z,15.05
2023-04-09T22:43:45.694Z,14.90
2023-04-09T22:48:47.553Z,15.05
2023-04-09T22:53:49.145Z,15.52
2023-04-09T22:58:51.035Z,14.38
2023-04-09T23:03:52.928Z,14.65
2023-04-09T23:08:54.853Z,14.65
2023-04-09T23:13:56.727Z,15.50
2023-04-09T23:18:58.364Z,14.93
2023-04-09T23:24:00.038Z,15.55
2023-04-09T23:29:01.807Z,15.40
2023-04-09T23:34:03.460Z,14.23
2023-04-09T23:39:05.461Z,12.43
2023-04-09T23:44:07.049Z,11.90
2023-04-09T23:49:08.649Z,12.35
2023-04-09T23:54:10.630Z,11.98
2023-04-09T23:59:12.418Z,12.30
